createdAt,value
2023-04-09T00:00:43.911Z,7.70
2023-04-09T00:03:10.793Z,7.70
2023-04-09T00:05:40.563Z,7.70
2023-04-09T00:08:07.454Z,7.60
2023-04-09T00:10:34.052Z,7.60
2023-04-09T00:13:00.552Z,7.70
2023-04-09T00:15:31.226Z,7.80
2023-04-09T00:17:59.159Z,7.70
2023-04-09T00:20:25.806Z,7.70
2023-04-09T00:22:52.459Z,7.60
2023-04-09T00:25:19.861Z,7.70
2023-04-09T00:27:46.971Z,7.60
2023-04-09T00:30:13.872Z,7.60
2023-04-09T00:35:18.458Z,7.60
2023-04-09T00:37:45.181Z,7.50
2023-04-09T00:40:11.761Z,7.50
2023-04-09T00:42:38.543Z,7.50
2023-04-09T00:45:06.058Z,7.50
2023-04-09T00:47:33.329Z,7.50
2023-04-09T00:50:00.555Z,7.60
2023-04-09T00:52:27.621Z,7.60
2023-04-09T00:54:54.709Z,7.60
2023-04-09T00:57:21.639Z,7.60
2023-04-09T00:59:48.161Z,7.70
2023-04-09T01:02:14.841Z,7.70
2023-04-09T01:04:42.101Z,7.70
2023-04-09T01:07:08.619Z,7.70
2023-04-09T01:09:43.492Z,7.70
2023-04-09T01:12:13.157Z,7.70
2023-04-09T01:14:51.279Z,7.60
2023-04-09T01:17:33.599Z,7.60
2023-04-09T01:20:05.293Z,7.50
2023-04-09T01:22:51.030Z,7.50
2023-04-09T01:25:43.729Z,7.50
2023-04-09T01:28:15.496Z,7.40
2023-04-09T01:30:43.515Z,7.40
2023-04-09T01:33:11.267Z,7.40
2023-04-09T01:35:38.324Z,7.50
2023-04-09T01:38:05.276Z,7.50
2023-04-09T01:40:31.935Z,7.50
2023-04-09T01:42:59.974Z,7.50
2023-04-09T01:45:26.826Z,7.50
2023-04-09T01:47:54.363Z,7.50
2023-04-09T01:50:21.030Z,7.50
2023-04-09T01:52:48.069Z,7.50
2023-04-09T01:55:14.604Z,7.40
2023-04-09T01:57:41.230Z,7.40
2023-04-09T02:00:09.301Z,7.40
2023-04-09T02:02:40.138Z,7.40
2023-04-09T02:05:09.012Z,7.40
2023-04-09T02:07:38.526Z,7.40
2023-04-09T02:10:06.613Z,7.30
2023-04-09T02:12:35.182Z,7.30
2023-04-09T02:17:31.242Z,7.20
2023-04-09T02:19:57.814Z,7.10
2023-04-09T02:22:24.454Z,7.10
2023-04-09T02:24:50.955Z,7.00
2023-04-09T02:27:17.585Z,7.00
2023-04-09T02:29:44.158Z,6.90
2023-04-09T02:32:10.662Z,6.90
2023-04-09T02:34:37.222Z,6.80
2023-04-09T02:37:03.793Z,6.80
2023-04-09T02:39:30.465Z,6.80
2023-04-09T02:41:57.912Z,6.70
2023-04-09T02:46:59.083Z,6.80
2023-04-09T02:49:25.672Z,6.80
2023-04-09T02:51:52.251Z,6.80
2023-04-09T02:54:18.832Z,6.70
2023-04-09T02:56:45.654Z,6.70
2023-04-09T02:59:12.214Z,6.80
2023-04-09T03:01:38.930Z,6.80
2023-04-09T03:04:05.739Z,6.80
2023-04-09T03:06:32.399Z,6.80
2023-04-09T03:08:58.928Z,6.80
2023-04-09T03:11:25.767Z,6.80
2023-04-09T03:13:52.329Z,6.70
2023-04-09T03:16:19.008Z,6.70
2023-04-09T03:18:45.664Z,6.70
2023-04-09T03:21:14.764Z,6.60
2023-04-09T03:23:41.568Z,6.60
2023-04-09T03:26:08.163Z,6.60
2023-04-09T03:28:34.671Z,6.60
2023-04-09T03:31:01.350Z,6.60
2023-04-09T03:33:27.934Z,6.50
2023-04-09T03:35:54.500Z,6.50
2023-04-09T03:38:21.186Z,6.50
2023-04-09T03:40:47.850Z,6.50
2023-04-09T03:43:14.358Z,6.60
2023-04-09T03:45:40.930Z,6.60
2023-04-09T03:48:07.429Z,6.50
2023-04-09T03:50:40.747Z,6.50
2023-04-09T03:53:07.266Z,6.40
2023-04-09T03:55:33.860Z,6.50
2023-04-09T03:58:00.534Z,6.40
2023-04-09T04:00:27.119Z,6.40
2023-04-09T04:02:53.839Z,6.40
2023-04-09T04:05:22.745Z,6.30
2023-04-09T04:07:49.284Z,6.30
2023-04-09T04:10:16.071Z,6.30
2023-04-09T04:12:42.617Z,6.30
2023-04-09T04:15:09.533Z,6.30
2023-04-09T04:17:36.036Z,6.40
2023-04-09T04:20:04.804Z,6.40
2023-04-09T04:22:31.352Z,6.40
2023-04-09T04:24:57.872Z,6.50
2023-04-09T04:27:24.476Z,6.50
2023-04-09T04:29:51.023Z,6.40
2023-04-09T04:32:17.488Z,6.50
2023-04-09T04:34:44.066Z,6.50
2023-04-09T04:37:13.161Z,6.40
2023-04-09T04:39:39.728Z,6.50
2023-04-09T04:42:06.301Z,6.40
2023-04-09T04:44:32.872Z,6.50
2023-04-09T04:46:59.475Z,6.40
2023-04-09T04:49:26.313Z,6.40
2023-04-09T04:51:55.268Z,6.40
2023-04-09T04:54:21.864Z,6.50
2023-04-09T04:56:48.378Z,6.50
2023-04-09T04:59:14.924Z,6.40
2023-04-09T05:01:41.549Z,6.40
2023-04-09T05:04:08.149Z,6.40
2023-04-09T05:06:34.760Z,6.50
2023-04-09T05:09:01.546Z,6.50
2023-04-09T05:11:28.356Z,6.60
2023-04-09T05:13:54.985Z,6.60
2023-04-09T05:16:22.108Z,6.60
2023-04-09T05:18:48.703Z,6.60
2023-04-09T05:21:15.409Z,6.60
2023-04-09T05:23:42.774Z,6.60
2023-04-09T05:26:09.328Z,6.70
2023-04-09T05:28:36.515Z,6.60
2023-04-09T05:31:03.240Z,6.70
2023-04-09T05:33:29.897Z,6.60
2023-04-09T05:35:56.514Z,6.60
2023-04-09T05:38:23.144Z,6.60
2023-04-09T05:40:49.782Z,6.70
2023-04-09T05:43:16.461Z,6.80
2023-04-09T05:45:43.128Z,6.70
2023-04-09T05:48:10.020Z,6.80
2023-04-09T05:50:47.460Z,6.80
2023-04-09T05:53:20.480Z,6.90
2023-04-09T05:55:49.094Z,7.00
2023-04-09T05:58:21.687Z,7.00
2023-04-09T06:00:48.282Z,7.10
2023-04-09T06:03:15.015Z,7.20
2023-04-09T06:05:41.746Z,7.20
2023-04-09T06:08:08.319Z,7.30
2023-04-09T06:10:42.215Z,7.30
2023-04-09T06:13:09.779Z,7.40
2023-04-09T06:15:37.601Z,7.40
2023-04-09T06:18:04.296Z,7.50
2023-04-09T06:20:31.424Z,7.50
2023-04-09T06:22:58.388Z,7.60
2023-04-09T06:25:24.992Z,7.70
2023-04-09T06:27:51.886Z,7.90
2023-04-09T06:30:18.522Z,7.90
2023-04-09T06:32:54.521Z,8.10
2023-04-09T06:35:22.141Z,8.10
2023-04-09T06:37:48.757Z,8.10
2023-04-09T06:40:15.563Z,8.20
2023-04-09T06:42:42.172Z,8.30
2023-04-09T06:45:09.034Z,8.20
2023-04-09T06:47:36.256Z,8.30
2023-04-09T06:50:03.102Z,8.40
2023-04-09T06:52:29.650Z,8.40
2023-04-09T06:54:56.155Z,8.40
2023-04-09T06:57:22.693Z,8.40
2023-04-09T06:59:49.228Z,8.50
2023-04-09T07:02:16.070Z,8.70
2023-04-09T07:04:42.819Z,8.70
2023-04-09T07:07:09.523Z,8.80
2023-04-09T07:09:36.463Z,8.90
2023-04-09T07:12:03.006Z,8.90
2023-04-09T07:14:29.561Z,9.00
2023-04-09T07:16:56.049Z,9.10
2023-04-09T07:19:22.597Z,9.20
2023-04-09T07:21:49.098Z,9.30
2023-04-09T07:24:15.809Z,9.30
2023-04-09T07:26:42.648Z,9.40
2023-04-09T07:29:09.287Z,9.50
2023-04-09T07:31:36.227Z,9.40
2023-04-09T07:34:03.012Z,9.50
2023-04-09T07:36:29.659Z,9.60
2023-04-09T07:38:56.251Z,9.80
2023-04-09T07:41:22.863Z,9.90
2023-04-09T07:43:49.413Z,9.90
2023-04-09T07:46:20.736Z,10.00
2023-04-09T07:48:48.490Z,10.00
2023-04-09T07:51:15.241Z,10.20
2023-04-09T07:53:41.885Z,10.20
2023-04-09T07:56:08.494Z,10.30
2023-04-09T07:58:36.159Z,10.50
2023-04-09T08:01:02.930Z,10.60
2023-04-09T08:03:29.819Z,10.70
2023-04-09T08:05:56.803Z,10.90
2023-04-09T08:08:23.347Z,10.90
2023-04-09T08:10:49.862Z,10.90
2023-04-09T08:13:16.906Z,10.90
2023-04-09T08:15:43.422Z,11.00
2023-04-09T08:18:10.088Z,11.10
2023-04-09T08:20:36.731Z,11.10
2023-04-09T08:23:04.531Z,11.10
2023-04-09T08:25:31.036Z,11.30
2023-04-09T08:27:58.131Z,11.30
2023-04-09T08:30:24.738Z,11.40
2023-04-09T08:32:51.407Z,11.40
2023-04-09T08:35:18.077Z,11.40
2023-04-09T08:37:44.640Z,11.60
2023-04-09T08:40:11.810Z,11.70
2023-04-09T08:42:44.571Z,11.80
2023-04-09T08:45:12.721Z,11.90
2023-04-09T08:47:41.640Z,11.80
2023-04-09T08:50:08.396Z,11.80
2023-04-09T08:52:35.236Z,12.10
2023-04-09T08:55:02.079Z,12.40
2023-04-09T08:57:28.662Z,12.50
2023-04-09T08:59:55.224Z,12.60
2023-04-09T09:02:24.141Z,12.80
2023-04-09T09:04:50.975Z,13.00
2023-04-09T09:07:17.766Z,13.00
2023-04-09T09:10:00.716Z,13.20
2023-04-09T09:12:34.518Z,13.40
2023-04-09T09:15:01.160Z,13.60
2023-04-09T09:17:28.637Z,14.00
2023-04-09T09:19:55.296Z,15.30
2023-04-09T09:22:21.891Z,17.00
2023-04-09T09:24:50.279Z,17.10
2023-04-09T09:27:33.283Z,17.20
2023-04-09T09:30:02.181Z,17.60
2023-04-09T09:32:28.840Z,17.70
2023-04-09T09:35:00.941Z,18.30
2023-04-09T09:37:30.925Z,18.70
2023-04-09T09:39:58.149Z,17.70
2023-04-09T09:42:24.811Z,18.40
2023-04-09T09:44:51.658Z,18.20
2023-04-09T09:47:19.784Z,17.00
2023-04-09T09:49:48.058Z,16.90
2023-04-09T09:52:15.381Z,18.00
2023-04-09T09:54:42.381Z,19.00
2023-04-09T09:57:14.931Z,18.40
2023-04-09T09:59:43.454Z,18.10
2023-04-09T10:02:31.359Z,18.30
2023-04-09T10:05:00.671Z,18.90
2023-04-09T10:07:27.661Z,19.00
2023-04-09T10:09:56.393Z,19.50
2023-04-09T10:12:23.881Z,18.10
2023-04-09T10:14:52.223Z,18.10
2023-04-09T10:17:19.736Z,19.50
2023-04-09T10:19:49.293Z,20.20
2023-04-09T10:22:18.200Z,20.00
2023-04-09T10:24:44.944Z,19.70
2023-04-09T10:27:15.113Z,19.70
2023-04-09T10:29:46.506Z,20.20
2023-04-09T10:32:17.580Z,19.10
2023-04-09T10:34:44.976Z,19.10
2023-04-09T10:37:22.404Z,17.60
2023-04-09T10:39:49.913Z,16.30
2023-04-09T10:42:43.219Z,14.90
2023-04-09T10:45:11.308Z,14.50
2023-04-09T10:47:39.196Z,14.50
2023-04-09T10:50:17.098Z,14.40
2023-04-09T10:52:44.337Z,14.30
2023-04-09T10:55:30.311Z,14.80
2023-04-09T10:57:57.558Z,17.10
2023-04-09T11:00:24.209Z,17.80
2023-04-09T11:03:04.327Z,16.40
2023-04-09T11:05:32.753Z,16.00
2023-04-09T11:08:03.734Z,17.50
2023-04-09T11:10:31.047Z,17.40
2023-04-09T11:12:57.689Z,16.00
2023-04-09T11:15:24.287Z,15.30
2023-04-09T11:17:50.942Z,15.10
2023-04-09T11:20:20.346Z,14.80
2023-04-09T11:22:47.363Z,15.60
2023-04-09T11:25:20.929Z,17.00
2023-04-09T11:27:47.960Z,16.90
2023-04-09T11:30:14.894Z,17.70
2023-04-09T11:32:41.586Z,17.80
2023-04-09T11:35:12.838Z,17.00
2023-04-09T11:37:39.557Z,15.80
2023-04-09T11:40:06.433Z,16.00
2023-04-09T11:42:32.986Z,17.10
2023-04-09T11:45:00.832Z,16.60
2023-04-09T11:47:27.611Z,15.60
2023-04-09T11:49:54.142Z,15.40
2023-04-09T11:52:20.715Z,15.70
2023-04-09T11:54:50.357Z,16.50
2023-04-09T11:57:17.100Z,17.30
2023-04-09T11:59:43.798Z,17.40
2023-04-09T12:02:10.451Z,16.50
2023-04-09T12:04:37.092Z,15.80
2023-04-09T12:07:07.848Z,15.70
2023-04-09T12:09:34.390Z,16.40
2023-04-09T12:12:02.117Z,17.50
2023-04-09T12:14:28.653Z,17.20
2023-04-09T12:16:55.305Z,17.10
2023-04-09T12:19:25.186Z,17.30
2023-04-09T12:21:54.539Z,17.30
2023-04-09T12:24:23.928Z,16.70
2023-04-09T12:26:50.574Z,16.60
2023-04-09T12:29:20.872Z,17.40
2023-04-09T12:31:47.512Z,18.60
2023-04-09T12:34:14.180Z,18.40
2023-04-09T12:36:43.893Z,18.50
2023-04-09T12:39:10.508Z,18.40
2023-04-09T12:41:37.259Z,17.90
2023-04-09T12:44:04.948Z,18.30
2023-04-09T12:46:32.515Z,17.40
2023-04-09T12:48:59.412Z,16.70
2023-04-09T12:51:26.107Z,16.30
2023-04-09T12:53:53.083Z,16.10
2023-04-09T12:56:20.221Z,16.00
2023-04-09T12:58:46.724Z,15.80
2023-04-09T13:01:13.477Z,15.60
2023-04-09T13:03:41.445Z,15.60
2023-04-09T13:06:08.670Z,15.20
2023-04-09T13:08:35.278Z,15.00
2023-04-09T13:11:01.856Z,15.20
2023-04-09T13:13:28.659Z,15.30
2023-04-09T13:15:55.401Z,15.70
2023-04-09T13:18:21.990Z,15.80
2023-04-09T13:20:48.588Z,15.90
2023-04-09T13:23:15.534Z,16.40
2023-04-09T13:25:42.260Z,17.20
2023-04-09T13:28:08.926Z,18.20
2023-04-09T13:30:35.751Z,18.00
2023-04-09T13:35:32.691Z,16.90
2023-04-09T13:37:59.271Z,16.50
2023-04-09T13:40:25.868Z,16.30
2023-04-09T13:42:52.460Z,17.00
2023-04-09T13:45:20.525Z,17.70
2023-04-09T13:47:47.068Z,18.10
2023-04-09T13:50:13.779Z,18.10
2023-04-09T13:52:40.395Z,17.70
2023-04-09T13:55:07.519Z,17.70
2023-04-09T13:57:35.293Z,17.70
2023-04-09T14:00:04.433Z,17.60
2023-04-09T14:02:31.506Z,16.90
2023-04-09T14:04:58.526Z,17.20
2023-04-09T14:07:25.307Z,18.10
2023-04-09T14:09:51.865Z,18.90
2023-04-09T14:12:18.440Z,18.90
2023-04-09T14:14:44.946Z,19.40
2023-04-09T14:17:11.482Z,19.50
2023-04-09T14:19:39.043Z,19.20
2023-04-09T14:22:07.333Z,18.40
2023-04-09T14:24:39.534Z,17.70
2023-04-09T14:27:07.616Z,17.30
2023-04-09T14:29:34.522Z,16.90
2023-04-09T14:32:01.320Z,16.20
2023-04-09T14:34:33.943Z,16.30
2023-04-09T14:37:00.674Z,16.50
2023-04-09T14:39:27.424Z,16.50
2023-04-09T14:41:55.124Z,16.20
2023-04-09T14:44:21.700Z,16.20
2023-04-09T14:46:48.440Z,16.40
2023-04-09T14:49:15.299Z,16.40
2023-04-09T14:51:41.874Z,16.30
2023-04-09T14:54:08.398Z,16.10
2023-04-09T14:56:47.240Z,16.00
2023-04-09T14:59:13.814Z,16.60
2023-04-09T15:01:40.542Z,16.50
2023-04-09T15:04:08.070Z,16.40
2023-04-09T15:06:34.693Z,17.00
2023-04-09T15:09:01.504Z,18.80
2023-04-09T15:11:28.873Z,19.40
2023-04-09T15:13:56.200Z,19.80
2023-04-09T15:16:27.124Z,19.00
2023-04-09T15:18:55.694Z,17.70
2023-04-09T15:21:22.609Z,17.00
2023-04-09T15:23:52.385Z,16.90
2023-04-09T15:26:19.478Z,18.00
2023-04-09T15:28:46.176Z,19.10
2023-04-09T15:31:13.027Z,20.20
2023-04-09T15:33:42.167Z,20.20
2023-04-09T15:36:08.861Z,20.20
2023-04-09T15:38:35.583Z,19.80
2023-04-09T15:41:02.116Z,19.60
2023-04-09T15:43:28.711Z,20.20
2023-04-09T15:45:55.389Z,20.30
2023-04-09T15:48:21.920Z,20.40
2023-04-09T15:50:48.503Z,20.60
2023-04-09T15:53:15.618Z,20.30
2023-04-09T15:55:42.561Z,20.50
2023-04-09T15:58:09.190Z,20.60
2023-04-09T16:00:35.847Z,21.20
2023-04-09T16:03:02.485Z,21.10
2023-04-09T16:05:29.109Z,21.20
2023-04-09T16:07:57.562Z,21.30
2023-04-09T16:10:25.990Z,20.50
2023-04-09T16:12:52.568Z,20.70
2023-04-09T16:15:19.174Z,20.50
2023-04-09T16:17:46.168Z,20.10
2023-04-09T16:20:12.836Z,20.50
2023-04-09T16:22:39.572Z,20.70
2023-04-09T16:25:06.533Z,20.40
2023-04-09T16:27:33.092Z,20.40
2023-04-09T16:30:00.344Z,20.50
2023-04-09T16:32:27.217Z,20.10
2023-04-09T16:34:53.809Z,19.90
2023-04-09T16:37:20.511Z,20.00
2023-04-09T16:39:47.106Z,20.30
2023-04-09T16:42:13.704Z,20.20
2023-04-09T16:44:40.320Z,20.10
2023-04-09T16:47:08.192Z,20.50
2023-04-09T16:49:34.798Z,19.70
2023-04-09T16:52:01.320Z,19.90
2023-04-09T16:54:28.053Z,20.10
2023-04-09T16:56:55.759Z,19.40
2023-04-09T16:59:22.496Z,19.30
2023-04-09T17:01:49.186Z,19.30
2023-04-09T17:04:16.176Z,19.50
2023-04-09T17:06:42.826Z,20.00
2023-04-09T17:09:09.402Z,19.50
2023-04-09T17:11:37.874Z,19.10
2023-04-09T17:14:04.520Z,18.60
2023-04-09T17:16:31.518Z,18.50
2023-04-09T17:18:58.313Z,18.00
2023-04-09T17:21:24.917Z,17.70
2023-04-09T17:23:51.475Z,17.30
2023-04-09T17:26:18.933Z,17.40
2023-04-09T17:28:46.685Z,17.10
2023-04-09T17:31:14.230Z,17.20
2023-04-09T17:33:42.189Z,17.10
2023-04-09T17:36:08.706Z,17.00
2023-04-09T17:38:35.363Z,16.50
2023-04-09T17:41:01.936Z,16.50
2023-04-09T17:43:28.426Z,16.00
2023-04-09T17:45:55.025Z,15.70
2023-04-09T17:48:21.877Z,15.40
2023-04-09T17:50:50.056Z,15.10
2023-04-09T17:53:16.649Z,15.20
2023-04-09T17:55:47.473Z,15.00
2023-04-09T17:58:14.664Z,14.80
2023-04-09T18:00:41.289Z,14.50
2023-04-09T18:03:07.974Z,14.30
2023-04-09T18:05:34.965Z,14.10
2023-04-09T18:08:04.594Z,14.00
2023-04-09T18:10:31.326Z,13.80
2023-04-09T18:12:57.980Z,13.70
2023-04-09T18:15:27.132Z,13.50
2023-04-09T18:17:53.735Z,13.50
2023-04-09T18:20:20.396Z,13.30
2023-04-09T18:22:46.992Z,13.20
2023-04-09T18:25:13.575Z,13.10
2023-04-09T18:27:40.343Z,13.00
2023-04-09T18:30:07.236Z,12.90
2023-04-09T18:32:33.802Z,12.90
2023-04-09T18:35:00.917Z,12.80
2023-04-09T18:37:27.710Z,12.70
2023-04-09T18:39:54.301Z,12.60
2023-04-09T18:42:20.886Z,12.50
2023-04-09T18:44:47.431Z,12.50
2023-04-09T18:47:14.441Z,12.40
2023-04-09T18:49:43.316Z,12.40
2023-04-09T18:52:10.217Z,12.40
2023-04-09T18:54:37.257Z,12.30
2023-04-09T18:57:04.294Z,12.20
2023-04-09T18:59:31.540Z,12.10
2023-04-09T19:01:58.578Z,12.10
2023-04-09T19:04:28.077Z,12.10
2023-04-09T19:06:54.791Z,12.00
2023-04-09T19:09:21.645Z,12.00
2023-04-09T19:11:48.295Z,11.90
2023-04-09T19:14:14.854Z,11.80
2023-04-09T19:16:41.762Z,11.70
2023-04-09T19:19:08.364Z,11.70
2023-04-09T19:21:35.882Z,11.60
2023-04-09T19:24:04.355Z,11.60
2023-04-09T19:26:32.501Z,11.50
2023-04-09T19:28:59.111Z,11.50
2023-04-09T19:31:25.806Z,11.50
2023-04-09T19:33:52.418Z,11.40
2023-04-09T19:36:18.955Z,11.40
2023-04-09T19:38:45.603Z,11.30
2023-04-09T19:41:12.146Z,11.30
2023-04-09T19:43:39.413Z,11.20
2023-04-09T19:46:07.214Z,11.20
2023-04-09T19:48:34.197Z,11.10
2023-04-09T19:51:01.924Z,11.10
2023-04-09T19:53:28.485Z,11.10
2023-04-09T19:55:54.989Z,11.00
2023-04-09T19:58:21.549Z,11.00
2023-04-09T20:00:48.148Z,11.00
2023-04-09T20:03:14.901Z,11.00
2023-04-09T20:05:41.596Z,11.00
2023-04-09T20:08:11.767Z,10.90
2023-04-09T20:10:42.599Z,10.80
2023-04-09T20:13:09.219Z,10.80
2023-04-09T20:15:35.797Z,10.70
2023-04-09T20:18:02.343Z,10.60
2023-04-09T20:20:28.993Z,10.50
2023-04-09T20:22:56.785Z,10.50
2023-04-09T20:25:23.893Z,10.40
2023-04-09T20:27:52.774Z,10.40
2023-04-09T20:30:19.695Z,10.40
2023-04-09T20:32:46.330Z,10.30
2023-04-09T20:35:14.399Z,10.30
2023-04-09T20:37:41.146Z,10.30
2023-04-09T20:40:07.870Z,10.20
2023-04-09T20:42:37.215Z,10.20
2023-04-09T20:45:04.213Z,10.10
2023-04-09T20:47:31.060Z,10.10
2023-04-09T20:49:59.828Z,10.10
2023-04-09T20:52:28.450Z,10.10
2023-04-09T20:54:56.794Z,10.00
2023-04-09T20:57:23.939Z,10.00
2023-04-09T20:59:50.774Z,9.90
2023-04-09T21:02:17.549Z,9.80
2023-04-09T21:04:44.229Z,9.70
2023-04-09T21:07:10.854Z,9.60
2023-04-09T21:09:38.095Z,9.50
2023-04-09T21:12:04.710Z,9.50
2023-04-09T21:14:31.492Z,9.50
2023-04-09T21:16:58.216Z,9.50
2023-04-09T21:19:24.892Z,9.40
2023-04-09T21:21:51.572Z,9.40
2023-04-09T21:24:18.360Z,9.40
2023-04-09T21:26:51.720Z,9.30
2023-04-09T21:29:20.198Z,9.30
2023-04-09T21:31:47.514Z,9.20
2023-04-09T21:34:14.008Z,9.20
2023-04-09T21:36:40.681Z,9.10
2023-04-09T21:39:07.681Z,9.00
2023-04-09T21:41:34.193Z,9.00
2023-04-09T21:44:07.742Z,8.90
2023-04-09T21:46:35.942Z,8.80
2023-04-09T21:49:02.962Z,8.80
2023-04-09T21:51:29.724Z,8.80
2023-04-09T21:54:03.486Z,8.80
2023-04-09T21:56:30.154Z,8.70
2023-04-09T21:58:56.746Z,8.70
2023-04-09T22:01:29.201Z,8.60
2023-04-09T22:04:00.134Z,8.50
2023-04-09T22:06:27.247Z,8.50
2023-04-09T22:08:56.685Z,8.50
2023-04-09T22:11:24.384Z,8.40
2023-04-09T22:13:50.861Z,8.40
2023-04-09T22:16:18.935Z,8.40
2023-04-09T22:18:45.619Z,8.30
2023-04-09T22:21:15.886Z,8.30
2023-04-09T22:23:42.684Z,8.20
2023-04-09T22:26:09.349Z,8.20
2023-04-09T22:28:35.896Z,8.20
2023-04-09T22:31:02.645Z,8.20
2023-04-09T22:33:29.374Z,8.10
2023-04-09T22:35:56.176Z,8.10
2023-04-09T22:38:22.837Z,8.00
2023-04-09T22:40:49.440Z,8.00
2023-04-09T22:43:17.100Z,8.00
2023-04-09T22:48:30.922Z,8.00
2023-04-09T22:50:58.665Z,8.00
2023-04-09T22:53:25.257Z,8.00
2023-04-09T22:55:51.962Z,7.90
2023-04-09T22:58:18.768Z,7.80
2023-04-09T23:00:45.606Z,7.70
2023-04-09T23:03:12.344Z,7.50
2023-04-09T23:05:39.550Z,7.40
2023-04-09T23:08:06.301Z,7.30
2023-04-09T23:10:33.419Z,7.20
2023-04-09T23:13:00.286Z,7.20
2023-04-09T23:15:27.090Z,7.10
2023-04-09T23:17:54.058Z,7.10
2023-04-09T23:20:20.754Z,7.00
2023-04-09T23:22:47.812Z,7.00
2023-04-09T23:25:14.937Z,6.90
2023-04-09T23:30:21.619Z,6.80
2023-04-09T23:32:48.476Z,6.70
2023-04-09T23:35:15.493Z,6.70
2023-04-09T23:37:44.884Z,6.70
2023-04-09T23:40:11.646Z,6.60
2023-04-09T23:42:38.224Z,6.60
2023-04-09T23:45:05.715Z,6.60
2023-04-09T23:47:33.248Z,6.50
2023-04-09T23:50:04.644Z,6.40
2023-04-09T23:52:32.375Z,6.30
2023-04-09T23:54:59.973Z,6.30
2023-04-09T23:57:27.404Z,6.30
2023-04-09T23:59:54.207Z,6.40
